KLYO/LYO METAR and TAF weather

Enter ICAO airport designator
Station Type Date Time Source
KLYO METAR 2019/02/17 15:35 UTC NOAA

KLYO 171535Z AUTO 33014KT 10SM SCT016 M06/M09 A2996 RMK AO2 T10571085


Station Type Date Time Source
KLYO Decoded METAR 2019/02/17 15:35 UTC NOAA

Station name not available
Feb 17, 2019 - 10:35 AM EST / 2019.02.17 1535 UTC
Wind: from the NNW (330 degrees) at 16 MPH (14 KT):0
Visibility: 10 mile(s):0
Sky conditions: partly cloudy
Temperature: 21.7 F (-5.7 C)
Windchill: 8 F (-13 C):1
Dew Point: 16.7 F (-8.5 C)
Relative Humidity: 80%
Pressure (altimeter): 29.96 in. Hg (1014 hPa)
ob: KLYO 171535Z AUTO 33014KT 10SM SCT016 M06/M09 A2996 RMK AO2 T10571085
cycle: 15

Station Type Date Time Source
KLYO TAF UTC NOAA

Error!


Example: see airport list